createdAt,value
2022-09-28T00:00:47.006Z,14.10
2022-09-28T00:04:50.002Z,14.10
2022-09-28T00:08:52.928Z,14.00
2022-09-28T00:12:57.646Z,14.00
2022-09-28T00:17:00.691Z,14.00
2022-09-28T00:21:11.773Z,13.90
2022-09-28T00:25:16.939Z,13.80
2022-09-28T00:29:34.562Z,13.70
2022-09-28T00:33:46.674Z,13.50
2022-09-28T00:37:50.542Z,13.50
2022-09-28T00:41:54.374Z,13.60
2022-09-28T00:50:31.167Z,13.60
2022-09-28T00:54:37.207Z,13.70
2022-09-28T00:58:46.871Z,13.70
2022-09-28T01:02:50.212Z,13.70
2022-09-28T01:06:53.602Z,13.70
2022-09-28T01:10:59.392Z,13.60
2022-09-28T01:15:05.691Z,13.60
2022-09-28T01:19:40.010Z,13.60
2022-09-28T01:24:22.266Z,13.50
2022-09-28T01:28:28.769Z,13.50
2022-09-28T01:32:51.216Z,13.50
2022-09-28T01:36:58.969Z,13.40
2022-09-28T01:41:04.416Z,13.30
2022-09-28T01:45:14.603Z,13.20
2022-09-28T01:49:27.403Z,13.10
2022-09-28T01:53:43.200Z,13.20
2022-09-28T01:58:01.952Z,13.20
2022-09-28T02:02:13.203Z,13.10
2022-09-28T02:06:22.935Z,13.10
2022-09-28T02:10:33.572Z,13.00
2022-09-28T02:14:40.846Z,13.00
2022-09-28T02:18:45.298Z,13.00
2022-09-28T02:22:53.483Z,12.80
2022-09-28T02:26:59.642Z,12.80
2022-09-28T02:31:07.569Z,12.80
2022-09-28T02:35:13.382Z,12.70
2022-09-28T02:39:18.169Z,12.70
2022-09-28T02:43:31.271Z,12.70
2022-09-28T02:48:10.093Z,12.70
2022-09-28T02:52:43.329Z,12.70
2022-09-28T02:57:24.218Z,12.70
2022-09-28T03:01:35.487Z,12.80
2022-09-28T03:05:41.484Z,12.80
2022-09-28T03:09:56.502Z,12.90
2022-09-28T03:14:00.403Z,13.00
2022-09-28T03:18:13.143Z,13.00
2022-09-28T03:22:17.624Z,13.00
2022-09-28T03:26:24.066Z,13.10
2022-09-28T03:30:27.024Z,13.30
2022-09-28T03:34:33.266Z,13.30
2022-09-28T03:38:36.225Z,13.30
2022-09-28T03:42:39.162Z,13.40
2022-09-28T03:46:42.226Z,13.50
2022-09-28T03:50:45.519Z,13.50
2022-09-28T03:54:49.359Z,13.50
2022-09-28T03:58:53.536Z,13.50
2022-09-28T04:02:56.419Z,13.50
2022-09-28T04:06:59.767Z,13.50
2022-09-28T04:11:02.655Z,13.50
2022-09-28T04:15:06.401Z,13.50
2022-09-28T04:19:09.879Z,13.60
2022-09-28T04:23:47.140Z,13.60
2022-09-28T04:28:09.237Z,13.50
2022-09-28T04:32:21.521Z,13.50
2022-09-28T04:36:25.862Z,13.50
2022-09-28T04:40:37.085Z,13.60
2022-09-28T04:44:40.355Z,13.70
2022-09-28T04:48:47.789Z,13.80
2022-09-28T04:53:10.431Z,13.80
2022-09-28T04:57:13.499Z,13.80
2022-09-28T05:01:19.932Z,13.80
2022-09-28T05:05:57.697Z,13.90
2022-09-28T05:14:39.285Z,13.80
2022-09-28T05:18:47.180Z,13.80
2022-09-28T05:22:52.206Z,13.90
2022-09-28T05:26:55.148Z,13.90
2022-09-28T05:31:05.740Z,14.00
2022-09-28T05:39:44.651Z,14.10
2022-09-28T05:43:48.448Z,14.10
2022-09-28T05:47:54.057Z,14.10
2022-09-28T05:52:02.323Z,14.20
2022-09-28T05:56:06.461Z,14.20
2022-09-28T06:00:14.337Z,14.20
2022-09-28T06:13:22.275Z,14.20
2022-09-28T06:17:29.477Z,14.20
2022-09-28T06:30:38.825Z,14.50
2022-09-28T06:39:02.874Z,14.60
2022-09-28T07:05:50.365Z,14.80
2022-09-28T07:23:50.327Z,15.10
2022-09-28T08:03:59.948Z,15.40
2022-09-28T08:08:11.099Z,15.40
2022-09-28T08:21:46.970Z,15.50
2022-09-28T08:25:54.297Z,15.60
2022-09-28T08:29:59.499Z,15.70
2022-09-28T08:39:34.967Z,15.90
2022-09-28T08:44:14.358Z,16.00
2022-09-28T08:53:39.224Z,16.10
2022-09-28T08:57:57.619Z,16.20
2022-09-28T09:06:45.087Z,16.30
2022-09-28T09:21:18.176Z,17.00
2022-09-28T09:25:25.005Z,17.20
2022-09-28T09:29:50.898Z,17.30
2022-09-28T09:34:15.098Z,17.50
2022-09-28T09:38:27.970Z,17.80
2022-09-28T09:43:21.207Z,18.00
2022-09-28T09:47:45.706Z,18.10
2022-09-28T09:52:24.159Z,18.10
2022-09-28T09:56:46.505Z,18.20
2022-09-28T10:00:58.422Z,18.20
2022-09-28T10:05:22.911Z,18.30
2022-09-28T10:09:35.355Z,18.30
2022-09-28T10:13:55.421Z,18.30
2022-09-28T10:18:21.662Z,18.30
2022-09-28T10:23:08.033Z,18.30
2022-09-28T10:27:32.359Z,18.30
2022-09-28T10:31:52.695Z,18.30
2022-09-28T10:36:06.768Z,18.40
2022-09-28T10:40:45.549Z,18.40
2022-09-28T10:44:57.543Z,18.60
2022-09-28T10:49:20.004Z,18.70
2022-09-28T10:53:34.563Z,18.90
2022-09-28T11:03:27.174Z,19.10
2022-09-28T11:07:44.314Z,19.20
2022-09-28T11:11:49.912Z,19.30
2022-09-28T11:15:54.003Z,19.60
2022-09-28T11:20:43.658Z,19.80
2022-09-28T11:25:12.647Z,19.90
2022-09-28T11:29:36.790Z,19.80
2022-09-28T11:34:31.418Z,19.70
2022-09-28T11:39:03.797Z,19.50
2022-09-28T11:48:29.142Z,19.60
2022-09-28T11:52:44.555Z,19.60
2022-09-28T11:56:58.248Z,19.50
2022-09-28T12:01:37.398Z,19.50
2022-09-28T12:06:37.086Z,19.50
2022-09-28T12:11:10.899Z,19.60
2022-09-28T12:20:50.574Z,19.50
2022-09-28T12:24:58.375Z,19.60
2022-09-28T12:29:13.684Z,19.80
2022-09-28T12:33:17.222Z,20.00
2022-09-28T12:37:28.445Z,20.00
2022-09-28T12:41:56.195Z,20.20
2022-09-28T12:46:33.131Z,20.50
2022-09-28T12:50:49.926Z,20.50
2022-09-28T12:55:06.611Z,20.60
2022-09-28T12:59:31.833Z,20.80
2022-09-28T13:04:03.414Z,20.80
2022-09-28T13:08:42.275Z,20.90
2022-09-28T13:13:18.331Z,21.10
2022-09-28T13:17:56.985Z,21.40
2022-09-28T13:22:43.553Z,21.50
2022-09-28T13:26:50.124Z,21.70
2022-09-28T13:30:55.083Z,21.70
2022-09-28T13:35:05.605Z,21.50
2022-09-28T13:39:40.018Z,21.50
2022-09-28T13:44:18.008Z,21.60
2022-09-28T13:48:27.769Z,21.70
2022-09-28T13:52:57.636Z,21.80
2022-09-28T13:57:37.413Z,21.90
2022-09-28T14:01:48.675Z,21.80
2022-09-28T14:06:24.228Z,21.70
2022-09-28T14:10:52.313Z,21.60
2022-09-28T14:19:37.438Z,21.50
2022-09-28T14:23:59.021Z,21.50
2022-09-28T14:28:38.972Z,21.50
2022-09-28T14:32:49.530Z,21.50
2022-09-28T14:37:11.213Z,21.50
2022-09-28T14:41:18.183Z,21.40
2022-09-28T14:45:35.623Z,21.50
2022-09-28T14:50:03.322Z,21.50
2022-09-28T14:54:26.477Z,21.50
2022-09-28T14:58:41.688Z,21.50
2022-09-28T15:02:50.333Z,21.50
2022-09-28T15:06:53.465Z,21.60
2022-09-28T15:10:58.901Z,21.60
2022-09-28T15:15:08.825Z,21.80
2022-09-28T15:28:19.796Z,22.00
2022-09-28T15:32:27.686Z,22.00
2022-09-28T15:36:51.564Z,22.00
2022-09-28T15:40:58.865Z,22.10
2022-09-28T15:45:29.178Z,22.10
2022-09-28T15:54:25.189Z,22.10
2022-09-28T16:08:28.820Z,21.70
2022-09-28T16:12:39.422Z,21.50
2022-09-28T16:16:52.398Z,21.30
2022-09-28T16:21:03.301Z,21.30
2022-09-28T16:25:17.593Z,21.20
2022-09-28T16:29:42.842Z,21.30
2022-09-28T16:38:34.817Z,21.10
2022-09-28T16:42:49.129Z,21.00
2022-09-28T16:46:58.311Z,20.90
2022-09-28T16:51:01.996Z,20.80
2022-09-28T16:59:44.191Z,20.50
2022-09-28T17:03:49.127Z,20.40
2022-09-28T17:08:03.748Z,20.20
2022-09-28T17:12:17.626Z,20.20
2022-09-28T17:16:42.958Z,20.00
2022-09-28T17:20:50.807Z,19.80
2022-09-28T17:24:55.070Z,19.70
2022-09-28T17:28:59.635Z,19.60
2022-09-28T17:33:06.391Z,19.50
2022-09-28T17:37:14.800Z,19.50
2022-09-28T17:41:21.881Z,19.50
2022-09-28T17:45:28.752Z,19.40
2022-09-28T17:49:31.694Z,19.30
2022-09-28T17:53:36.705Z,19.30
2022-09-28T18:02:03.699Z,19.20
2022-09-28T18:06:18.147Z,19.20
2022-09-28T18:10:25.141Z,19.20
2022-09-28T18:14:31.300Z,19.20
2022-09-28T18:18:39.192Z,19.10
2022-09-28T18:22:45.721Z,19.00
2022-09-28T18:26:50.287Z,19.00
2022-09-28T18:30:55.334Z,19.00
2022-09-28T18:35:01.535Z,19.00
2022-09-28T18:39:06.676Z,19.00
2022-09-28T18:43:12.785Z,18.90
2022-09-28T18:47:16.125Z,18.90
2022-09-28T18:51:24.385Z,18.80
2022-09-28T18:55:31.934Z,18.80
2022-09-28T18:59:36.402Z,18.70
2022-09-28T19:03:41.593Z,18.70
2022-09-28T19:07:48.943Z,18.70
2022-09-28T19:11:54.453Z,18.70
2022-09-28T19:16:21.416Z,18.60
2022-09-28T19:20:26.793Z,18.50
2022-09-28T19:24:31.614Z,18.50
2022-09-28T19:28:43.198Z,18.50
2022-09-28T19:32:51.610Z,18.50
2022-09-28T19:36:57.981Z,18.50
2022-09-28T19:41:01.682Z,18.60
2022-09-28T19:45:37.939Z,18.70
2022-09-28T19:49:46.145Z,18.70
2022-09-28T19:53:52.522Z,18.70
2022-09-28T19:58:02.766Z,18.80
2022-09-28T20:02:07.270Z,18.90
2022-09-28T20:06:17.238Z,18.90
2022-09-28T20:10:25.503Z,19.00
2022-09-28T20:14:40.265Z,19.00
2022-09-28T20:18:53.136Z,19.00
2022-09-28T20:22:58.430Z,19.00
2022-09-28T20:27:02.541Z,19.00
2022-09-28T20:31:26.704Z,19.10
2022-09-28T20:35:34.874Z,19.20
2022-09-28T20:39:41.583Z,19.20
2022-09-28T20:43:53.955Z,19.20
2022-09-28T20:48:04.130Z,19.20
2022-09-28T20:52:07.644Z,19.20
2022-09-28T20:56:14.044Z,19.30
2022-09-28T21:00:17.485Z,19.30
2022-09-28T21:04:25.263Z,19.30
2022-09-28T21:08:29.008Z,19.30
2022-09-28T21:12:34.254Z,19.20
2022-09-28T21:16:40.830Z,19.10
2022-09-28T21:20:51.917Z,19.00
2022-09-28T21:24:56.719Z,19.00
2022-09-28T21:29:13.246Z,19.00
2022-09-28T21:33:16.037Z,19.00
2022-09-28T21:37:20.999Z,18.90
2022-09-28T21:41:25.402Z,18.90
2022-09-28T21:45:28.716Z,18.90
2022-09-28T21:49:32.924Z,19.00
2022-09-28T21:53:38.465Z,19.00
2022-09-28T21:57:41.115Z,19.10
2022-09-28T22:01:44.525Z,19.20
2022-09-28T22:05:52.190Z,19.20
2022-09-28T22:09:59.143Z,19.20
2022-09-28T22:14:02.372Z,19.20
2022-09-28T22:18:05.086Z,19.20
2022-09-28T22:22:09.836Z,19.20
2022-09-28T22:26:19.469Z,19.10
2022-09-28T22:30:22.131Z,19.20
2022-09-28T22:34:28.103Z,19.20
2022-09-28T22:38:32.742Z,19.10
2022-09-28T22:42:35.447Z,19.00
2022-09-28T22:46:38.242Z,18.90
2022-09-28T22:50:51.907Z,18.70
2022-09-28T22:54:56.074Z,18.60
2022-09-28T22:58:59.186Z,18.50
2022-09-28T23:03:03.741Z,18.40
2022-09-28T23:07:07.468Z,18.20
2022-09-28T23:11:10.585Z,18.10
2022-09-28T23:15:14.334Z,18.10
2022-09-28T23:19:18.597Z,18.10
2022-09-28T23:23:22.190Z,18.10
2022-09-28T23:27:25.328Z,18.20
2022-09-28T23:31:31.984Z,18.20
2022-09-28T23:35:34.697Z,18.20
2022-09-28T23:39:37.345Z,18.30
2022-09-28T23:43:42.713Z,18.20
2022-09-28T23:47:45.845Z,18.30
2022-09-28T23:51:49.005Z,18.40
2022-09-28T23:55:52.443Z,18.40
2022-09-28T23:59:56.025Z,18.50
